createdAt,value
2023-04-08T00:00:17.379Z,10.47
2023-04-08T00:01:17.358Z,10.52
2023-04-08T00:02:17.461Z,10.51
2023-04-08T00:03:17.485Z,10.45
2023-04-08T00:04:17.429Z,10.45
2023-04-08T00:05:17.341Z,10.45
2023-04-08T00:06:17.341Z,10.55
2023-04-08T00:07:17.336Z,10.53
2023-04-08T00:08:17.339Z,10.60
2023-04-08T00:09:17.332Z,10.55
2023-04-08T00:10:17.328Z,10.63
2023-04-08T00:11:17.333Z,10.55
2023-04-08T00:12:17.323Z,10.45
2023-04-08T00:13:17.326Z,10.51
2023-04-08T00:14:17.316Z,10.52
2023-04-08T00:15:17.319Z,10.56
2023-04-08T00:16:17.427Z,10.55
2023-04-08T00:17:17.308Z,10.55
2023-04-08T00:18:17.301Z,10.52
2023-04-08T00:19:17.312Z,10.63
2023-04-08T00:20:17.298Z,10.48
2023-04-08T00:21:17.299Z,10.56
2023-04-08T00:22:17.299Z,10.53
2023-04-08T00:23:17.290Z,10.51
2023-04-08T00:24:17.289Z,10.51
2023-04-08T00:25:17.297Z,10.66
2023-04-08T00:26:17.281Z,10.60
2023-04-08T00:27:17.284Z,10.59
2023-04-08T00:28:17.272Z,10.64
2023-04-08T00:29:17.277Z,10.63
2023-04-08T00:30:17.278Z,10.56
2023-04-08T00:31:17.317Z,10.56
2023-04-08T00:32:17.292Z,10.71
2023-04-08T00:33:17.271Z,10.66
2023-04-08T00:34:17.276Z,10.63
2023-04-08T00:35:17.363Z,10.73
2023-04-08T00:36:17.256Z,10.67
2023-04-08T00:37:17.253Z,10.61
2023-04-08T00:38:17.253Z,10.59
2023-04-08T00:39:17.254Z,10.63
2023-04-08T00:40:17.252Z,10.60
2023-04-08T00:41:17.247Z,10.63
2023-04-08T00:42:17.243Z,10.70
2023-04-08T00:43:17.236Z,10.70
2023-04-08T00:44:17.232Z,10.68
2023-04-08T00:45:17.255Z,10.70
2023-04-08T00:46:17.250Z,10.66
2023-04-08T00:47:17.226Z,10.63
2023-04-08T00:48:17.241Z,10.67
2023-04-08T00:49:17.219Z,10.64
2023-04-08T00:50:17.217Z,10.68
2023-04-08T00:51:17.221Z,10.71
2023-04-08T00:52:17.206Z,10.68
2023-04-08T00:53:17.208Z,10.61
2023-04-08T00:54:17.200Z,10.59
2023-04-08T00:55:17.201Z,10.64
2023-04-08T00:56:17.198Z,10.70
2023-04-08T00:57:17.199Z,10.78
2023-04-08T00:58:17.196Z,10.61
2023-04-08T00:59:17.203Z,10.70
2023-04-08T01:00:17.196Z,10.67
2023-04-08T01:01:17.243Z,10.73
2023-04-08T01:02:17.326Z,10.68
2023-04-08T01:03:17.367Z,10.63
2023-04-08T01:04:17.283Z,10.59
2023-04-08T01:05:17.174Z,10.67
2023-04-08T01:06:17.171Z,10.68
2023-04-08T01:07:17.174Z,10.76
2023-04-08T01:08:17.184Z,10.78
2023-04-08T01:09:17.162Z,10.76
2023-04-08T01:10:17.182Z,10.66
2023-04-08T01:11:17.157Z,10.78
2023-04-08T01:12:17.156Z,10.81
2023-04-08T01:13:17.161Z,10.82
2023-04-08T01:14:17.152Z,10.71
2023-04-08T01:15:17.147Z,10.74
2023-04-08T01:16:17.208Z,10.64
2023-04-08T01:17:17.142Z,10.64
2023-04-08T01:18:17.135Z,10.56
2023-04-08T01:19:17.135Z,10.56
2023-04-08T01:20:17.158Z,10.67
2023-04-08T01:21:17.131Z,10.59
2023-04-08T01:22:17.124Z,10.59
2023-04-08T01:23:17.131Z,10.59
2023-04-08T01:24:17.118Z,10.64
2023-04-08T01:25:17.121Z,10.52
2023-04-08T01:26:17.115Z,10.56
2023-04-08T01:27:17.128Z,10.56
2023-04-08T01:28:17.111Z,10.66
2023-04-08T01:29:17.109Z,10.63
2023-04-08T01:30:17.110Z,10.64
2023-04-08T01:31:17.182Z,10.76
2023-04-08T01:32:17.110Z,10.60
2023-04-08T01:33:17.105Z,10.61
2023-04-08T01:34:17.096Z,10.67
2023-04-08T01:35:17.171Z,10.52
2023-04-08T01:36:17.113Z,10.52
2023-04-08T01:37:17.087Z,10.53
2023-04-08T01:38:17.084Z,10.55
2023-04-08T01:39:17.083Z,10.59
2023-04-08T01:40:17.081Z,10.63
2023-04-08T01:41:17.078Z,10.70
2023-04-08T01:42:17.085Z,10.71
2023-04-08T01:43:17.075Z,10.61
2023-04-08T01:44:17.064Z,10.64
2023-04-08T01:45:17.072Z,10.71
2023-04-08T01:46:17.096Z,10.64
2023-04-08T01:47:17.064Z,10.60
2023-04-08T01:48:17.067Z,10.70
2023-04-08T01:49:17.060Z,10.67
2023-04-08T01:50:17.061Z,10.73
2023-04-08T01:51:17.054Z,10.66
2023-04-08T01:52:17.071Z,10.76
2023-04-08T01:53:17.043Z,10.81
2023-04-08T01:54:17.043Z,10.71
2023-04-08T01:55:17.066Z,10.70
2023-04-08T01:56:17.065Z,10.76
2023-04-08T01:57:17.036Z,10.82
2023-04-08T01:58:17.060Z,10.85
2023-04-08T01:59:17.234Z,10.81
2023-04-08T02:00:17.350Z,10.70
2023-04-08T02:01:17.033Z,10.73
2023-04-08T02:02:17.090Z,10.76
2023-04-08T02:03:17.487Z,10.78
2023-04-08T02:04:17.149Z,10.81
2023-04-08T02:05:17.010Z,10.82
2023-04-08T02:06:17.011Z,10.73
2023-04-08T02:07:17.004Z,10.68
2023-04-08T02:08:17.032Z,10.64
2023-04-08T02:09:17.006Z,10.66
2023-04-08T02:10:17.006Z,10.71
2023-04-08T02:11:16.997Z,10.76
2023-04-08T02:12:16.994Z,10.71
2023-04-08T02:13:16.991Z,10.82
2023-04-08T02:14:16.989Z,10.76
2023-04-08T02:15:16.984Z,10.79
2023-04-08T02:16:17.028Z,10.79
2023-04-08T02:17:16.975Z,10.81
2023-04-08T02:18:16.981Z,10.71
2023-04-08T02:19:16.979Z,10.63
2023-04-08T02:20:16.988Z,10.74
2023-04-08T02:21:16.991Z,10.78
2023-04-08T02:22:16.967Z,10.68
2023-04-08T02:23:16.981Z,10.67
2023-04-08T02:24:16.988Z,10.71
2023-04-08T02:25:16.979Z,10.74
2023-04-08T02:26:16.962Z,10.76
2023-04-08T02:27:16.949Z,10.82
2023-04-08T02:28:16.950Z,10.66
2023-04-08T02:29:16.943Z,10.73
2023-04-08T02:30:16.947Z,10.78
2023-04-08T02:31:16.950Z,10.70
2023-04-08T02:32:16.940Z,10.66
2023-04-08T02:33:16.953Z,10.70
2023-04-08T02:34:16.948Z,10.66
2023-04-08T02:35:17.002Z,10.71
2023-04-08T02:36:16.937Z,10.67
2023-04-08T02:37:16.926Z,10.70
2023-04-08T02:38:16.938Z,10.60
2023-04-08T02:39:16.944Z,10.60
2023-04-08T02:40:16.938Z,10.60
2023-04-08T02:41:16.912Z,10.52
2023-04-08T02:42:16.908Z,10.66
2023-04-08T02:43:16.913Z,10.61
2023-04-08T02:44:16.910Z,10.59
2023-04-08T02:45:16.910Z,10.61
2023-04-08T02:46:16.979Z,10.59
2023-04-08T02:47:16.889Z,10.59
2023-04-08T02:48:16.906Z,10.67
2023-04-08T02:49:16.889Z,10.63
2023-04-08T02:50:16.898Z,10.60
2023-04-08T02:51:16.879Z,10.71
2023-04-08T02:52:16.895Z,10.63
2023-04-08T02:53:16.872Z,10.60
2023-04-08T02:54:16.874Z,10.56
2023-04-08T02:55:16.873Z,10.59
2023-04-08T02:56:16.898Z,10.67
2023-04-08T02:57:16.871Z,10.61
2023-04-08T02:58:16.863Z,10.67
2023-04-08T02:59:16.859Z,10.64
2023-04-08T03:00:16.856Z,10.67
2023-04-08T03:01:17.279Z,10.68
2023-04-08T03:02:16.925Z,10.67
2023-04-08T03:03:16.913Z,10.68
2023-04-08T03:04:16.864Z,10.68
2023-04-08T03:05:16.851Z,10.64
2023-04-08T03:06:16.852Z,10.82
2023-04-08T03:07:16.842Z,10.79
2023-04-08T03:08:16.837Z,10.79
2023-04-08T03:09:16.828Z,10.78
2023-04-08T03:10:16.828Z,10.88
2023-04-08T03:11:16.823Z,10.84
2023-04-08T03:12:16.847Z,10.74
2023-04-08T03:13:16.816Z,10.81
2023-04-08T03:14:16.817Z,10.82
2023-04-08T03:15:16.808Z,10.81
2023-04-08T03:16:16.868Z,10.76
2023-04-08T03:17:16.809Z,10.84
2023-04-08T03:18:16.804Z,10.84
2023-04-08T03:19:16.804Z,10.88
2023-04-08T03:20:16.805Z,10.78
2023-04-08T03:21:16.796Z,10.78
2023-04-08T03:22:16.808Z,10.71
2023-04-08T03:23:16.786Z,10.66
2023-04-08T03:24:16.793Z,10.60
2023-04-08T03:25:16.786Z,10.56
2023-04-08T03:26:16.789Z,10.71
2023-04-08T03:27:16.798Z,10.61
2023-04-08T03:28:16.805Z,10.68
2023-04-08T03:29:16.772Z,10.71
2023-04-08T03:30:16.774Z,10.61
2023-04-08T03:31:16.815Z,10.68
2023-04-08T03:32:16.765Z,10.61
2023-04-08T03:33:16.761Z,10.64
2023-04-08T03:34:16.762Z,10.71
2023-04-08T03:35:16.760Z,10.68
2023-04-08T03:36:16.752Z,10.61
2023-04-08T03:37:16.750Z,10.70
2023-04-08T03:38:16.779Z,10.74
2023-04-08T03:39:16.741Z,10.70
2023-04-08T03:40:16.743Z,10.71
2023-04-08T03:41:16.751Z,10.70
2023-04-08T03:42:16.738Z,10.66
2023-04-08T03:43:16.742Z,10.61
2023-04-08T03:44:16.752Z,10.71
2023-04-08T03:45:16.741Z,10.64
2023-04-08T03:46:16.786Z,10.78
2023-04-08T03:47:16.723Z,10.71
2023-04-08T03:48:16.721Z,10.78
2023-04-08T03:49:16.718Z,10.73
2023-04-08T03:50:16.714Z,10.67
2023-04-08T03:51:16.710Z,10.67
2023-04-08T03:52:16.708Z,10.70
2023-04-08T03:53:16.707Z,10.76
2023-04-08T03:54:16.705Z,10.70
2023-04-08T03:55:16.704Z,10.76
2023-04-08T03:56:16.701Z,10.76
2023-04-08T03:57:17.021Z,10.81
2023-04-08T03:58:16.699Z,10.82
2023-04-08T03:59:16.683Z,10.76
2023-04-08T04:00:16.707Z,10.79
2023-04-08T04:01:17.017Z,10.71
2023-04-08T04:02:16.741Z,10.74
2023-04-08T04:03:16.777Z,10.82
2023-04-08T04:04:16.763Z,10.78
2023-04-08T04:05:16.667Z,10.74
2023-04-08T04:06:16.669Z,10.85
2023-04-08T04:07:16.659Z,10.85
2023-04-08T04:08:16.660Z,10.81
2023-04-08T04:09:16.675Z,10.73
2023-04-08T04:10:16.661Z,10.82
2023-04-08T04:11:16.653Z,10.79
2023-04-08T04:12:16.654Z,10.78
2023-04-08T04:13:16.658Z,10.85
2023-04-08T04:14:16.644Z,10.71
2023-04-08T04:15:16.643Z,10.81
2023-04-08T04:16:16.804Z,10.81
2023-04-08T04:17:16.628Z,10.71
2023-04-08T04:18:16.667Z,10.76
2023-04-08T04:19:16.623Z,10.66
2023-04-08T04:20:16.636Z,10.81
2023-04-08T04:21:16.621Z,10.79
2023-04-08T04:22:16.624Z,10.81
2023-04-08T04:23:16.620Z,10.81
2023-04-08T04:24:16.618Z,10.64
2023-04-08T04:25:16.615Z,10.66
2023-04-08T04:26:16.613Z,10.73
2023-04-08T04:27:16.606Z,10.70
2023-04-08T04:28:16.624Z,10.68
2023-04-08T04:29:16.599Z,10.70
2023-04-08T04:30:16.602Z,10.81
2023-04-08T04:31:16.608Z,10.74
2023-04-08T04:32:16.617Z,10.78
2023-04-08T04:33:16.592Z,10.78
2023-04-08T04:34:16.588Z,10.70
2023-04-08T04:35:16.605Z,10.78
2023-04-08T04:36:16.587Z,10.86
2023-04-08T04:37:16.579Z,10.79
2023-04-08T04:38:16.577Z,10.79
2023-04-08T04:39:16.589Z,10.78
2023-04-08T04:40:16.577Z,10.84
2023-04-08T04:41:16.562Z,10.76
2023-04-08T04:42:16.567Z,10.85
2023-04-08T04:43:16.558Z,10.86
2023-04-08T04:44:16.565Z,10.82
2023-04-08T04:45:16.565Z,10.76
2023-04-08T04:46:16.625Z,10.82
2023-04-08T04:47:16.552Z,10.85
2023-04-08T04:48:16.563Z,10.84
2023-04-08T04:49:16.541Z,10.81
2023-04-08T04:50:16.542Z,10.86
2023-04-08T04:51:16.548Z,10.85
2023-04-08T04:52:16.534Z,10.89
2023-04-08T04:53:16.531Z,10.86
2023-04-08T04:54:16.531Z,10.82
2023-04-08T04:55:16.566Z,10.89
2023-04-08T04:56:16.519Z,10.86
2023-04-08T04:57:16.518Z,10.78
2023-04-08T04:58:16.520Z,10.85
2023-04-08T04:59:16.512Z,10.86
2023-04-08T05:00:16.513Z,10.94
2023-04-08T05:01:16.558Z,10.94
2023-04-08T05:02:16.649Z,10.78
2023-04-08T05:03:16.710Z,10.91
2023-04-08T05:04:16.534Z,10.94
2023-04-08T05:05:16.552Z,10.79
2023-04-08T05:06:16.502Z,10.88
2023-04-08T05:07:16.507Z,10.86
2023-04-08T05:08:16.502Z,10.92
2023-04-08T05:09:16.504Z,11.00
2023-04-08T05:10:16.498Z,11.00
2023-04-08T05:11:16.486Z,10.92
2023-04-08T05:12:16.487Z,10.76
2023-04-08T05:13:16.484Z,10.85
2023-04-08T05:14:16.501Z,10.89
2023-04-08T05:15:16.505Z,10.94
2023-04-08T05:16:16.575Z,10.94
2023-04-08T05:17:16.472Z,11.02
2023-04-08T05:18:16.476Z,10.99
2023-04-08T05:19:16.466Z,11.00
2023-04-08T05:20:17.643Z,11.03
2023-04-08T05:21:16.463Z,11.03
2023-04-08T05:22:16.464Z,11.11
2023-04-08T05:23:16.462Z,11.10
2023-04-08T05:24:16.458Z,11.09
2023-04-08T05:25:16.501Z,11.11
2023-04-08T05:26:16.632Z,11.11
2023-04-08T05:27:16.447Z,11.18
2023-04-08T05:28:16.449Z,11.17
2023-04-08T05:29:16.448Z,11.15
2023-04-08T05:30:16.454Z,11.18
2023-04-08T05:31:16.461Z,11.17
2023-04-08T05:32:16.437Z,11.21
2023-04-08T05:33:16.434Z,11.15
2023-04-08T05:34:16.438Z,11.17
2023-04-08T05:35:16.424Z,11.10
2023-04-08T05:36:16.452Z,11.21
2023-04-08T05:37:16.422Z,11.15
2023-04-08T05:38:16.420Z,11.19
2023-04-08T05:39:16.414Z,11.17
2023-04-08T05:40:16.416Z,11.22
2023-04-08T05:41:16.406Z,11.17
2023-04-08T05:42:16.410Z,11.22
2023-04-08T05:43:16.404Z,11.22
2023-04-08T05:44:16.415Z,11.27
2023-04-08T05:45:16.397Z,11.37
2023-04-08T05:46:16.429Z,11.35
2023-04-08T05:47:16.406Z,11.24
2023-04-08T05:48:16.399Z,11.21
2023-04-08T05:49:16.392Z,11.27
2023-04-08T05:50:16.395Z,11.33
2023-04-08T05:51:16.384Z,11.36
2023-04-08T05:52:16.413Z,11.39
2023-04-08T05:53:16.404Z,11.33
2023-04-08T05:54:16.379Z,11.37
2023-04-08T05:55:16.371Z,11.36
2023-04-08T05:56:16.420Z,11.28
2023-04-08T05:57:16.364Z,11.39
2023-04-08T05:58:16.369Z,11.28
2023-04-08T05:59:16.354Z,11.35
2023-04-08T06:00:16.352Z,11.33
2023-04-08T06:01:16.348Z,11.39
2023-04-08T06:02:16.445Z,11.37
2023-04-08T06:03:19.733Z,11.44
2023-04-08T06:04:16.509Z,11.43
2023-04-08T06:05:16.342Z,11.46
2023-04-08T06:06:16.332Z,11.44
2023-04-08T06:07:16.336Z,11.27
2023-04-08T06:08:16.362Z,11.40
2023-04-08T06:09:16.323Z,11.40
2023-04-08T06:10:16.321Z,11.37
2023-04-08T06:11:16.329Z,11.29
2023-04-08T06:12:16.314Z,11.29
2023-04-08T06:13:16.319Z,11.36
2023-04-08T06:14:16.314Z,11.39
2023-04-08T06:15:16.314Z,11.44
2023-04-08T06:16:17.208Z,11.28
2023-04-08T06:17:16.306Z,11.36
2023-04-08T06:18:16.302Z,11.32
2023-04-08T06:19:16.462Z,11.42
2023-04-08T06:20:16.303Z,11.39
2023-04-08T06:21:16.294Z,11.47
2023-04-08T06:22:16.288Z,11.51
2023-04-08T06:23:16.291Z,11.61
2023-04-08T06:24:16.307Z,11.69
2023-04-08T06:25:16.319Z,11.69
2023-04-08T06:26:16.281Z,11.73
2023-04-08T06:27:16.315Z,11.67
2023-04-08T06:28:16.275Z,11.73
2023-04-08T06:29:16.280Z,11.70
2023-04-08T06:30:16.290Z,11.75
2023-04-08T06:31:16.298Z,11.73
2023-04-08T06:32:16.269Z,11.69
2023-04-08T06:33:16.268Z,11.79
2023-04-08T06:34:16.261Z,11.86
2023-04-08T06:35:16.279Z,11.95
2023-04-08T06:36:16.267Z,12.04
2023-04-08T06:37:16.307Z,12.07
2023-04-08T06:38:16.256Z,12.09
2023-04-08T06:39:16.255Z,12.21
2023-04-08T06:40:16.276Z,12.21
2023-04-08T06:41:16.259Z,12.14
2023-04-08T06:42:16.243Z,12.19
2023-04-08T06:43:16.249Z,12.32
2023-04-08T06:44:16.237Z,12.35
2023-04-08T06:45:16.242Z,12.38
2023-04-08T06:46:16.376Z,12.41
2023-04-08T06:47:16.233Z,12.50
2023-04-08T06:48:16.226Z,12.42
2023-04-08T06:49:16.245Z,12.53
2023-04-08T06:50:16.229Z,12.59
2023-04-08T06:51:16.225Z,12.71
2023-04-08T06:52:16.219Z,12.79
2023-04-08T06:53:16.220Z,12.85
2023-04-08T06:54:16.216Z,12.87
2023-04-08T06:55:16.221Z,13.04
2023-04-08T06:56:16.250Z,12.97
2023-04-08T06:57:16.214Z,13.01
2023-04-08T06:58:16.212Z,12.95
2023-04-08T06:59:16.206Z,13.11
2023-04-08T07:00:16.200Z,12.97
2023-04-08T07:01:16.287Z,13.05
2023-04-08T07:02:16.232Z,13.10
2023-04-08T07:03:16.294Z,13.10
2023-04-08T07:04:16.406Z,13.11
2023-04-08T07:05:16.207Z,13.04
2023-04-08T07:06:16.204Z,13.05
2023-04-08T07:07:16.201Z,13.19
2023-04-08T07:08:16.194Z,13.25
2023-04-08T07:09:16.232Z,13.30
2023-04-08T07:10:16.188Z,13.33
2023-04-08T07:11:16.203Z,13.20
2023-04-08T07:12:16.209Z,13.23
2023-04-08T07:13:16.199Z,13.25
2023-04-08T07:14:16.183Z,13.25
2023-04-08T07:15:16.180Z,13.29
2023-04-08T07:16:16.290Z,13.39
2023-04-08T07:17:16.222Z,13.38
2023-04-08T07:18:16.171Z,13.54
2023-04-08T07:19:16.172Z,13.49
2023-04-08T07:20:16.167Z,13.69
2023-04-08T07:21:16.171Z,13.63
2023-04-08T07:22:16.180Z,13.67
2023-04-08T07:23:16.164Z,13.75
2023-04-08T07:24:16.168Z,13.71
2023-04-08T07:25:16.168Z,13.63
2023-04-08T07:26:16.157Z,13.70
2023-04-08T07:27:16.158Z,13.73
2023-04-08T07:28:16.196Z,13.71
2023-04-08T07:29:16.157Z,13.73
2023-04-08T07:30:16.152Z,13.81
2023-04-08T07:31:16.235Z,13.69
2023-04-08T07:32:16.173Z,13.73
2023-04-08T07:33:16.147Z,13.78
2023-04-08T07:34:16.149Z,13.81
2023-04-08T07:35:16.153Z,13.78
2023-04-08T07:36:16.138Z,13.84
2023-04-08T07:37:16.192Z,13.85
2023-04-08T07:38:16.184Z,13.81
2023-04-08T07:39:16.142Z,13.91
2023-04-08T07:40:16.137Z,13.96
2023-04-08T07:41:16.141Z,13.95
2023-04-08T07:42:16.133Z,13.88
2023-04-08T07:43:16.151Z,13.89
2023-04-08T07:44:16.150Z,13.85
2023-04-08T07:45:16.129Z,13.91
2023-04-08T07:46:16.218Z,13.89
2023-04-08T07:47:16.128Z,13.82
2023-04-08T07:48:16.123Z,13.78
2023-04-08T07:49:16.127Z,13.73
2023-04-08T07:50:16.158Z,13.71
2023-04-08T07:51:16.121Z,13.78
2023-04-08T07:52:16.162Z,13.70
2023-04-08T07:53:16.121Z,13.59
2023-04-08T07:54:16.111Z,13.64
2023-04-08T07:55:16.123Z,13.63
2023-04-08T07:56:16.186Z,13.59
2023-04-08T07:57:16.113Z,13.57
2023-04-08T07:58:16.115Z,13.57
2023-04-08T07:59:16.108Z,13.70
2023-04-08T08:00:16.119Z,13.57
2023-04-08T08:01:16.104Z,13.55
2023-04-08T08:02:16.157Z,13.62
2023-04-08T08:03:16.181Z,13.69
2023-04-08T08:04:16.292Z,13.73
2023-04-08T08:05:16.223Z,13.73
2023-04-08T08:06:16.106Z,13.66
2023-04-08T08:07:16.100Z,13.66
2023-04-08T08:08:16.086Z,13.75
2023-04-08T08:09:16.113Z,13.73
2023-04-08T08:10:16.089Z,13.69
2023-04-08T08:11:16.106Z,13.69
2023-04-08T08:12:16.100Z,13.67
2023-04-08T08:13:16.095Z,13.69
2023-04-08T08:14:16.087Z,13.77
2023-04-08T08:15:16.096Z,13.63
2023-04-08T08:16:16.144Z,13.69
2023-04-08T08:17:16.089Z,13.81
2023-04-08T08:18:16.087Z,13.87
2023-04-08T08:19:16.082Z,13.95
2023-04-08T08:20:16.076Z,13.92
2023-04-08T08:21:16.132Z,14.00
2023-04-08T08:22:16.087Z,13.99
2023-04-08T08:23:16.084Z,14.15
2023-04-08T08:24:16.072Z,14.18
2023-04-08T08:25:16.086Z,14.25
2023-04-08T08:26:16.085Z,14.22
2023-04-08T08:27:16.076Z,14.33
2023-04-08T08:28:16.081Z,14.24
2023-04-08T08:29:16.085Z,14.40
2023-04-08T08:30:16.068Z,14.35
2023-04-08T08:31:16.107Z,14.36
2023-04-08T08:32:16.084Z,14.39
2023-04-08T08:33:16.068Z,14.42
2023-04-08T08:34:16.085Z,14.43
2023-04-08T08:35:16.072Z,14.42
2023-04-08T08:36:16.106Z,14.42
2023-04-08T08:37:16.062Z,14.36
2023-04-08T08:38:16.054Z,14.36
2023-04-08T08:39:16.054Z,14.28
2023-04-08T08:40:16.082Z,14.20
2023-04-08T08:41:16.060Z,14.17
2023-04-08T08:42:16.059Z,14.14
2023-04-08T08:43:16.068Z,14.15
2023-04-08T08:44:16.050Z,14.14
2023-04-08T08:45:16.048Z,14.10
2023-04-08T08:46:16.060Z,14.04
2023-04-08T08:47:16.053Z,14.06
2023-04-08T08:48:16.192Z,13.96
2023-04-08T08:49:16.045Z,14.02
2023-04-08T08:50:16.047Z,14.03
2023-04-08T08:51:16.041Z,13.97
2023-04-08T08:52:16.048Z,13.99
2023-04-08T08:53:16.041Z,13.99
2023-04-08T08:54:16.036Z,14.06
2023-04-08T08:55:32.543Z,14.04
2023-04-08T08:56:17.798Z,14.12
2023-04-08T08:57:16.038Z,14.15
2023-04-08T08:58:16.037Z,14.14
2023-04-08T08:59:16.028Z,14.20
2023-04-08T09:00:16.047Z,14.21
2023-04-08T09:01:16.022Z,14.07
2023-04-08T09:02:16.167Z,14.14
2023-04-08T09:03:16.253Z,14.06
2023-04-08T09:04:16.337Z,14.09
2023-04-08T09:05:16.215Z,14.00
2023-04-08T09:06:16.023Z,13.92
2023-04-08T09:07:16.021Z,13.99
2023-04-08T09:08:16.007Z,14.03
2023-04-08T09:09:16.039Z,14.09
2023-04-08T09:10:16.011Z,14.06
2023-04-08T09:11:16.040Z,14.09
2023-04-08T09:12:18.043Z,14.10
2023-04-08T09:13:16.056Z,14.20
2023-04-08T09:14:16.006Z,14.17
2023-04-08T09:15:16.017Z,14.10
2023-04-08T09:16:16.034Z,14.15
2023-04-08T09:17:16.009Z,14.09
2023-04-08T09:18:17.737Z,14.10
2023-04-08T09:19:16.027Z,14.12
2023-04-08T09:20:16.027Z,14.10
2023-04-08T09:21:16.004Z,14.12
2023-04-08T09:22:16.000Z,14.07
2023-04-08T09:23:16.000Z,13.96
2023-04-08T09:24:17.771Z,13.96
2023-04-08T09:25:16.014Z,13.96
2023-04-08T09:26:16.001Z,14.17
2023-04-08T09:27:15.995Z,14.15
2023-04-08T09:28:15.988Z,14.28
2023-04-08T09:29:26.026Z,14.50
2023-04-08T09:30:15.995Z,14.62
2023-04-08T09:31:16.004Z,14.83
2023-04-08T09:32:16.005Z,14.89
2023-04-08T09:33:16.002Z,15.03
2023-04-08T09:34:15.999Z,15.14
2023-04-08T09:35:15.990Z,15.09
2023-04-08T09:36:16.014Z,15.32
2023-04-08T09:37:15.987Z,15.32
2023-04-08T09:38:15.993Z,15.32
2023-04-08T09:39:15.994Z,15.29
2023-04-08T09:40:15.986Z,15.35
2023-04-08T09:41:15.982Z,15.36
2023-04-08T09:42:15.980Z,15.47
2023-04-08T09:43:15.977Z,15.56
2023-04-08T09:44:15.976Z,15.62
2023-04-08T09:45:15.978Z,15.62
2023-04-08T09:46:16.088Z,15.59
2023-04-08T09:47:15.973Z,15.62
2023-04-08T09:48:16.586Z,15.51
2023-04-08T09:49:15.974Z,15.38
2023-04-08T09:50:15.971Z,15.32
2023-04-08T09:51:15.973Z,15.34
2023-04-08T09:52:16.021Z,15.25
2023-04-08T09:53:15.979Z,15.25
2023-04-08T09:54:15.965Z,15.31
2023-04-08T09:55:15.965Z,15.50
2023-04-08T09:56:15.968Z,15.59
2023-04-08T09:57:15.961Z,15.71
2023-04-08T09:58:15.964Z,15.76
2023-04-08T09:59:15.969Z,15.93
2023-04-08T10:00:15.962Z,15.97
2023-04-08T10:01:15.989Z,16.09
2023-04-08T10:02:16.031Z,16.05
2023-04-08T10:03:16.262Z,16.23
2023-04-08T10:04:16.064Z,16.15
2023-04-08T10:05:15.957Z,16.11
2023-04-08T10:06:15.963Z,16.25
2023-04-08T10:07:15.963Z,16.09
2023-04-08T10:08:15.975Z,15.93
2023-04-08T10:09:15.953Z,15.76
2023-04-08T10:10:15.978Z,15.69
2023-04-08T10:11:15.953Z,15.86
2023-04-08T10:12:15.953Z,15.76
2023-04-08T10:13:15.988Z,15.72
2023-04-08T10:14:15.948Z,15.86
2023-04-08T10:15:15.952Z,15.92
2023-04-08T10:16:15.990Z,15.90
2023-04-08T10:17:15.946Z,15.90
2023-04-08T10:18:15.946Z,15.83
2023-04-08T10:19:15.952Z,15.90
2023-04-08T10:20:15.949Z,15.75
2023-04-08T10:21:15.947Z,15.76
2023-04-08T10:22:15.949Z,15.76
2023-04-08T10:23:15.960Z,15.72
2023-04-08T10:24:15.973Z,15.80
2023-04-08T10:25:15.941Z,15.84
2023-04-08T10:26:15.945Z,15.87
2023-04-08T10:27:15.942Z,15.68
2023-04-08T10:28:15.940Z,15.65
2023-04-08T10:29:15.936Z,15.68
2023-04-08T10:30:15.936Z,15.64
2023-04-08T10:31:15.936Z,15.68
2023-04-08T10:32:15.938Z,15.60
2023-04-08T10:33:15.933Z,15.57
2023-04-08T10:34:15.997Z,15.39
2023-04-08T10:35:15.931Z,15.32
2023-04-08T10:36:15.929Z,15.41
2023-04-08T10:37:15.932Z,15.43
2023-04-08T10:38:15.945Z,15.54
2023-04-08T10:39:15.930Z,15.65
2023-04-08T10:40:16.000Z,15.71
2023-04-08T10:41:15.926Z,16.00
2023-04-08T10:42:15.925Z,16.09
2023-04-08T10:43:15.982Z,16.24
2023-04-08T10:44:15.921Z,16.34
2023-04-08T10:45:15.924Z,16.43
2023-04-08T10:46:15.941Z,16.63
2023-04-08T10:47:15.921Z,16.56
2023-04-08T10:48:15.921Z,16.50
2023-04-08T10:49:15.926Z,16.42
2023-04-08T10:50:15.993Z,16.38
2023-04-08T10:51:15.916Z,16.41
2023-04-08T10:52:15.915Z,16.25
2023-04-08T10:53:15.916Z,16.38
2023-04-08T10:54:15.932Z,16.46
2023-04-08T10:55:15.910Z,16.53
2023-04-08T10:56:15.938Z,16.60
2023-04-08T10:57:15.913Z,16.63
2023-04-08T10:58:15.913Z,16.63
2023-04-08T10:59:15.911Z,16.60
2023-04-08T11:00:15.985Z,16.45
2023-04-08T11:01:15.920Z,16.34
2023-04-08T11:02:16.228Z,16.34
2023-04-08T11:03:16.096Z,16.30
2023-04-08T11:04:16.078Z,16.25
2023-04-08T11:05:15.919Z,16.09
2023-04-08T11:06:15.912Z,16.14
2023-04-08T11:07:15.925Z,15.83
2023-04-08T11:08:15.911Z,15.68
2023-04-08T11:09:15.909Z,15.75
2023-04-08T11:10:15.938Z,15.84
2023-04-08T11:11:15.907Z,15.87
2023-04-08T11:12:15.933Z,15.71
2023-04-08T11:13:15.903Z,15.84
2023-04-08T11:14:15.905Z,15.71
2023-04-08T11:15:15.908Z,15.68
2023-04-08T11:16:18.214Z,15.89
2023-04-08T11:17:15.912Z,15.89
2023-04-08T11:18:15.922Z,16.01
2023-04-08T11:19:15.916Z,15.89
2023-04-08T11:20:15.911Z,15.83
2023-04-08T11:21:15.907Z,15.68
2023-04-08T11:22:15.899Z,15.74
2023-04-08T11:23:15.901Z,15.74
2023-04-08T11:24:15.913Z,15.82
2023-04-08T11:25:15.932Z,15.67
2023-04-08T11:26:15.902Z,15.75
2023-04-08T11:27:15.898Z,15.59
2023-04-08T11:28:15.919Z,15.62
2023-04-08T11:29:15.902Z,15.65
2023-04-08T11:30:15.903Z,15.75
2023-04-08T11:31:15.947Z,15.64
2023-04-08T11:32:15.899Z,15.50
2023-04-08T11:33:15.890Z,15.62
2023-04-08T11:34:15.903Z,15.75
2023-04-08T11:35:15.905Z,15.90
2023-04-08T11:36:15.943Z,16.07
2023-04-08T11:37:15.907Z,16.24
2023-04-08T11:38:15.902Z,16.42
2023-04-08T11:39:15.889Z,16.31
2023-04-08T11:40:15.900Z,16.49
2023-04-08T11:41:15.902Z,16.64
2023-04-08T11:42:15.891Z,16.93
2023-04-08T11:43:15.888Z,17.01
2023-04-08T11:44:15.911Z,17.40
2023-04-08T11:45:15.905Z,17.52
2023-04-08T11:46:15.940Z,17.86
2023-04-08T11:47:15.882Z,17.70
2023-04-08T11:48:15.882Z,17.46
2023-04-08T11:49:15.886Z,17.72
2023-04-08T11:50:16.091Z,17.87
2023-04-08T11:51:15.878Z,18.23
2023-04-08T11:52:15.886Z,18.47
2023-04-08T11:53:15.876Z,18.57
2023-04-08T11:54:15.882Z,18.67
2023-04-08T11:55:15.879Z,18.35
2023-04-08T11:56:15.896Z,18.45
2023-04-08T11:57:15.887Z,18.75
2023-04-08T11:58:15.939Z,19.10
2023-04-08T11:59:15.883Z,19.00
2023-04-08T12:00:15.910Z,18.66
2023-04-08T12:01:15.908Z,19.08
2023-04-08T12:02:15.975Z,19.00
2023-04-08T12:03:15.919Z,19.32
2023-04-08T12:04:15.998Z,19.50
2023-04-08T12:05:15.886Z,19.65
2023-04-08T12:06:15.890Z,19.26
2023-04-08T12:07:15.880Z,19.21
2023-04-08T12:08:15.889Z,19.21
2023-04-08T12:09:15.885Z,19.40
2023-04-08T12:10:15.885Z,19.29
2023-04-08T12:11:20.080Z,19.29
2023-04-08T12:12:15.888Z,19.19
2023-04-08T12:13:15.884Z,18.81
2023-04-08T12:14:15.890Z,18.70
2023-04-08T12:15:15.880Z,18.98
2023-04-08T12:16:15.920Z,18.80
2023-04-08T12:17:15.888Z,18.98
2023-04-08T12:18:15.884Z,19.19
2023-04-08T12:19:15.889Z,19.29
2023-04-08T12:20:15.893Z,19.28
2023-04-08T12:21:15.887Z,19.21
2023-04-08T12:22:15.892Z,19.23
2023-04-08T12:23:15.887Z,19.07
2023-04-08T12:24:15.892Z,19.25
2023-04-08T12:25:15.894Z,19.21
2023-04-08T12:26:15.903Z,18.90
2023-04-08T12:27:15.893Z,18.67
2023-04-08T12:28:15.892Z,18.42
2023-04-08T12:29:15.902Z,18.14
2023-04-08T12:30:16.634Z,17.95
2023-04-08T12:31:15.926Z,17.97
2023-04-08T12:32:15.917Z,18.10
2023-04-08T12:33:15.895Z,18.18
2023-04-08T12:34:15.900Z,18.23
2023-04-08T12:35:15.898Z,18.47
2023-04-08T12:36:15.953Z,18.33
2023-04-08T12:37:15.900Z,18.41
2023-04-08T12:38:15.900Z,18.63
2023-04-08T12:39:15.924Z,18.57
2023-04-08T12:40:15.904Z,18.44
2023-04-08T12:41:15.920Z,18.36
2023-04-08T12:42:15.906Z,18.44
2023-04-08T12:43:15.909Z,18.25
2023-04-08T12:44:15.909Z,18.17
2023-04-08T12:45:15.908Z,18.07
2023-04-08T12:46:15.934Z,18.17
2023-04-08T12:47:16.019Z,18.17
2023-04-08T12:48:15.950Z,18.20
2023-04-08T12:49:15.906Z,18.26
2023-04-08T12:50:15.929Z,18.15
2023-04-08T12:51:15.915Z,18.32
2023-04-08T12:52:15.913Z,18.08